Time;durP1;ratioP1;P1;durP2;ratioP2;P2;SDS_P1;SDS_P2;PMS_P1;PMS_P2;Temp;Humidity;BMP_temperature;BMP_pressure;BME280_temperature;BME280_humidity;BME280_pressure;Samples;Min_cycle;Max_cycle;Signal;HPM_P1;HPM_P2
2021/09/27 00:01:39;;;;;;;22.15;16.73;;;;;;;15.24;100.00;100213.72;4899859;29;20073;-93
2021/09/27 00:04:06;;;;;;;20.65;15.48;;;;;;;15.28;100.00;100206.44;4900104;29;20045;-93
2021/09/27 00:06:33;;;;;;;25.15;17.48;;;;;;;15.25;100.00;100204.91;4898627;29;20045;-93
2021/09/27 00:09:00;;;;;;;24.40;17.13;;;;;;;15.24;100.00;100207.63;4900113;29;20053;-93
2021/09/27 00:11:28;;;;;;;22.45;16.42;;;;;;;15.20;100.00;100207.00;4900359;29;20055;-93
2021/09/27 00:13:59;;;;;;;17.25;12.85;;;;;;;15.18;100.00;100206.28;4907965;29;20044;-91
2021/09/27 00:16:27;;;;;;;16.70;12.27;;;;;;;15.15;100.00;100206.47;4904021;29;20100;-93
2021/09/27 00:18:54;;;;;;;14.13;11.70;;;;;;;15.12;100.00;100199.63;4901175;29;20048;-92
2021/09/27 00:21:33;;;;;;;15.48;11.20;;;;;;;15.14;100.00;100203.00;4900689;29;20096;-92
2021/09/27 00:24:00;;;;;;;13.68;10.45;;;;;;;15.16;100.00;100195.84;4899461;29;20060;-92
2021/09/27 00:26:29;;;;;;;14.85;10.27;;;;;;;15.16;100.00;100193.22;4898839;29;20491;-93
2021/09/27 00:28:56;;;;;;;13.95;10.35;;;;;;;15.19;100.00;100186.94;4899995;29;20041;-92
2021/09/27 00:31:24;;;;;;;13.45;9.05;;;;;;;15.18;100.00;100188.75;4900030;29;20116;-92
2021/09/27 00:33:51;;;;;;;8.85;7.68;;;;;;;15.23;100.00;100177.03;4899292;29;20040;-92
2021/09/27 00:36:18;;;;;;;14.25;9.23;;;;;;;15.23;100.00;100177.88;4899517;29;20104;-92
2021/09/27 00:38:45;;;;;;;12.05;9.32;;;;;;;15.26;100.00;100179.47;4899132;29;20053;-92
2021/09/27 00:41:19;;;;;;;13.13;9.45;;;;;;;15.26;100.00;100177.69;4899536;29;20049;-91
2021/09/27 00:43:48;;;;;;;16.20;8.55;;;;;;;15.26;100.00;100175.06;4899478;29;20056;-91
2021/09/27 00:46:21;;;;;;;12.98;8.70;;;;;;;15.25;100.00;100168.13;4899447;29;20045;-91
2021/09/27 00:48:49;;;;;;;11.73;9.02;;;;;;;15.24;100.00;100168.25;4899424;29;20132;-90
2021/09/27 00:51:22;;;;;;;10.18;8.25;;;;;;;15.23;100.00;100164.75;4899601;29;20108;-91
2021/09/27 00:54:00;;;;;;;9.73;8.68;;;;;;;15.18;100.00;100167.72;4900064;29;20512;-91
2021/09/27 00:56:33;;;;;;;15.48;8.93;;;;;;;15.16;100.00;100160.88;4899246;29;20388;-90
2021/09/27 00:59:01;;;;;;;12.25;8.95;;;;;;;15.15;100.00;100161.84;4899645;29;20055;-93
2021/09/27 01:01:28;;;;;;;11.82;9.60;;;;;;;15.17;100.00;100158.16;4898963;29;20068;-90
2021/09/27 01:03:56;;;;;;;15.15;9.07;;;;;;;15.16;100.00;100168.78;4899365;29;20476;-90
2021/09/27 01:06:41;;;;;;;11.65;9.02;;;;;;;15.12;100.00;100160.25;4898901;29;20546;-91
2021/09/27 01:09:42;;;;;;;12.07;9.63;;;;;;;15.11;100.00;100163.00;4897956;29;20067;-90
2021/09/27 01:12:20;;;;;;;11.13;9.90;;;;;;;15.04;100.00;100165.22;4897420;29;20098;-92
2021/09/27 01:15:18;;;;;;;16.02;9.23;;;;;;;15.06;100.00;100168.56;4899415;29;20052;-93
2021/09/27 01:18:15;;;;;;;12.07;8.70;;;;;;;15.01;100.00;100167.22;4898644;29;20403;-93
2021/09/27 01:20:53;;;;;;;10.63;8.57;;;;;;;15.04;100.00;100164.38;4899169;29;20059;-93
2021/09/27 01:23:42;;;;;;;13.88;9.07;;;;;;;15.05;100.00;100155.56;4898575;29;20053;-93
2021/09/27 01:26:11;;;;;;;14.02;9.80;;;;;;;15.10;100.00;100156.91;4897482;29;20040;-92
2021/09/27 01:29:06;;;;;;;12.90;10.70;;;;;;;15.07;100.00;100149.25;4896925;29;20456;-93
2021/09/27 01:31:52;;;;;;;12.65;10.57;;;;;;;15.05;100.00;100155.56;4897615;29;20060;-93
2021/09/27 01:34:42;;;;;;;12.63;8.60;;;;;;;15.12;100.00;100160.25;4898364;29;20037;-93
2021/09/27 01:37:27;;;;;;;14.02;9.73;;;;;;;15.13;100.00;100156.72;4898923;29;20108;-93
2021/09/27 01:40:05;;;;;;;11.38;9.43;;;;;;;15.13;100.00;100150.63;4898239;29;20049;-90
2021/09/27 01:42:44;;;;;;;10.48;9.23;;;;;;;15.10;100.00;100151.66;4898426;29;20044;-90
2021/09/27 01:45:35;;;;;;;13.55;9.80;;;;;;;15.14;100.00;100149.66;4898068;29;20045;-90
2021/09/27 01:48:30;;;;;;;11.13;9.40;;;;;;;15.10;100.00;100141.16;4895318;29;20497;-90
2021/09/27 01:51:00;;;;;;;12.30;8.80;;;;;;;15.11;100.00;100150.72;4890837;29;20108;-89
2021/09/27 01:53:37;;;;;;;12.57;9.70;;;;;;;15.10;100.00;100145.56;4899205;29;20477;-92
2021/09/27 01:56:10;;;;;;;11.80;9.82;;;;;;;15.12;100.00;100152.38;4898545;29;20097;-93
2021/09/27 01:58:43;;;;;;;11.00;8.35;;;;;;;15.09;100.00;100144.75;4898795;29;20051;-94
2021/09/27 02:01:18;;;;;;;13.35;9.15;;;;;;;15.06;100.00;100146.72;4898494;29;20514;-94
2021/09/27 02:03:54;;;;;;;14.02;10.15;;;;;;;15.08;100.00;100145.69;4898961;29;20052;-94
2021/09/27 02:06:29;;;;;;;13.38;10.05;;;;;;;15.08;100.00;100140.44;4898394;29;20105;-93
2021/09/27 02:09:21;;;;;;;12.27;9.75;;;;;;;15.04;100.00;100141.59;4897452;29;20460;-92
2021/09/27 02:11:52;;;;;;;11.07;9.25;;;;;;;15.10;100.00;100143.78;4879076;29;20041;-93
2021/09/27 02:14:29;;;;;;;42.55;14.30;;;;;;;15.13;100.00;100140.97;4897128;29;20044;-94
2021/09/27 02:17:06;;;;;;;16.88;10.18;;;;;;;15.14;100.00;100134.75;4898513;29;20049;-94
2021/09/27 02:19:36;;;;;;;14.30;9.98;;;;;;;15.13;100.00;100137.50;4899093;29;20048;-92
2021/09/27 02:22:11;;;;;;;16.55;11.13;;;;;;;15.13;100.00;100137.50;4898125;29;20104;-95
2021/09/27 02:24:44;;;;;;;13.05;10.85;;;;;;;15.12;100.00;100138.41;4899364;29;20071;-93
2021/09/27 02:27:10;;;;;;;13.40;10.45;;;;;;;15.14;100.00;100134.75;4898680;29;20052;-94
2021/09/27 02:29:38;;;;;;;12.60;10.20;;;;;;;15.17;100.00;100139.78;4899068;29;20049;-94
2021/09/27 02:32:10;;;;;;;11.40;10.20;;;;;;;15.20;100.00;100136.09;4897428;29;20040;-93
2021/09/27 02:34:57;;;;;;;14.25;11.02;;;;;;;15.25;100.00;100141.03;4898075;29;20080;-93
2021/09/27 02:37:51;;;;;;;12.57;10.20;;;;;;;15.30;100.00;100139.75;4898849;29;20049;-93
2021/09/27 02:40:27;;;;;;;14.35;10.73;;;;;;;15.31;100.00;100128.31;4897311;29;20052;-93
2021/09/27 02:42:56;;;;;;;15.15;10.40;;;;;;;15.32;100.00;100144.88;4898080;29;20103;-92
2021/09/27 02:45:25;;;;;;;11.30;9.77;;;;;;;15.37;100.00;100141.00;4897614;29;20116;-93
2021/09/27 02:48:20;;;;;;;13.20;10.82;;;;;;;15.47;100.00;100133.28;4897830;29;20052;-91
2021/09/27 02:50:52;;;;;;;13.15;9.50;;;;;;;15.63;100.00;100139.16;4875195;29;20449;-94
2021/09/27 02:53:20;;;;;;;13.82;9.30;;;;;;;15.78;100.00;100146.88;4890024;29;20040;-93
2021/09/27 02:56:02;;;;;;;12.38;8.95;;;;;;;15.88;100.00;100150.50;4897912;29;20078;-93
2021/09/27 02:59:13;;;;;;;10.60;8.38;;;;;;;15.97;100.00;100147.19;4883533;29;20052;-92
2021/09/27 03:01:58;;;;;;;13.25;8.98;;;;;;;15.91;100.00;100134.50;4829517;29;20050;-93
2021/09/27 03:04:37;;;;;;;11.50;7.85;;;;;;;15.97;100.00;100139.28;4840082;29;20050;-94
2021/09/27 03:07:45;;;;;;;9.27;7.22;;;;;;;15.80;100.00;100139.69;4873278;29;20049;-94
2021/09/27 03:10:45;;;;;;;9.93;7.10;;;;;;;15.85;100.00;100135.78;4866345;29;20135;-93
2021/09/27 03:13:30;;;;;;;9.15;7.78;;;;;;;15.92;100.00;100136.16;4898009;29;20052;-92
2021/09/27 03:16:21;;;;;;;9.48;8.50;;;;;;;15.90;100.00;100138.06;4897371;29;20056;-94
2021/09/27 03:19:15;;;;;;;10.57;8.90;;;;;;;15.99;100.00;100132.16;4897453;29;20104;-93
2021/09/27 03:22:12;;;;;;;10.90;8.48;;;;;;;16.01;100.00;100135.50;4897615;29;20044;-95
2021/09/27 03:25:17;;;;;;;10.73;7.43;;;;;;;16.07;100.00;100128.94;4885392;29;20495;-96
2021/09/27 03:28:09;;;;;;;11.00;8.93;;;;;;;16.09;100.00;100133.13;4897044;29;20053;-95
2021/09/27 03:30:45;;;;;;;10.80;9.45;;;;;;;16.11;100.00;100130.38;4898368;29;20041;-95
2021/09/27 03:33:39;;;;;;;15.27;10.38;;;;;;;16.12;100.00;100132.88;4898444;29;20042;-95
2021/09/27 03:36:24;;;;;;;17.38;11.48;;;;;;;16.15;100.00;100129.22;4897275;29;20484;-94
2021/09/27 03:39:20;;;;;;;13.88;11.50;;;;;;;16.10;100.00;100126.91;4897398;29;20048;-95
2021/09/27 03:41:51;;;;;;;12.05;9.20;;;;;;;16.14;100.00;100130.13;4882358;29;20518;-95
2021/09/27 03:44:50;;;;;;;15.32;10.25;;;;;;;16.13;100.00;100131.94;4896673;29;20040;-95
2021/09/27 03:47:16;;;;;;;11.82;8.85;;;;;;;16.08;100.00;100135.88;4897903;29;20075;-93
2021/09/27 03:49:48;;;;;;;14.30;8.82;;;;;;;16.02;100.00;100133.69;4897360;29;20045;-92
2021/09/27 03:52:19;;;;;;;10.10;8.57;;;;;;;15.95;100.00;100135.94;4898629;29;20045;-93
2021/09/27 03:54:55;;;;;;;9.63;8.15;;;;;;;15.93;100.00;100143.94;4900188;29;20556;-94
2021/09/27 03:57:46;;;;;;;12.13;9.02;;;;;;;15.93;100.00;100138.69;4900862;29;20108;-94
2021/09/27 04:00:22;;;;;;;11.88;8.63;;;;;;;15.94;100.00;100144.78;4898046;29;20122;-94
2021/09/27 04:03:02;;;;;;;10.18;7.85;;;;;;;15.96;100.00;100150.75;4899866;29;20476;-94
2021/09/27 04:06:17;;;;;;;11.68;9.18;;;;;;;16.04;100.00;100153.69;4899871;29;20044;-91
2021/09/27 04:09:08;;;;;;;11.80;8.50;;;;;;;16.16;100.00;100150.13;4873844;29;20484;-93
2021/09/27 04:11:44;;;;;;;11.85;10.30;;;;;;;16.15;100.00;100145.81;4898659;29;20071;-94
2021/09/27 04:14:24;;;;;;;13.93;9.93;;;;;;;16.17;100.00;100150.97;4900574;29;20100;-94
2021/09/27 04:17:04;;;;;;;11.43;9.50;;;;;;;16.23;100.00;100151.34;4899572;29;20048;-94
2021/09/27 04:19:54;;;;;;;12.10;10.35;;;;;;;16.28;100.00;100142.25;4900577;29;20116;-95
2021/09/27 04:22:24;;;;;;;14.02;11.45;;;;;;;16.31;100.00;100152.56;4900222;29;20041;-93
2021/09/27 04:25:25;;;;;;;12.60;11.25;;;;;;;16.35;100.00;100154.00;4900506;29;20048;-94
2021/09/27 04:28:01;;;;;;;13.07;11.70;;;;;;;16.35;100.00;100151.34;4900126;29;20049;-94
2021/09/27 04:30:49;;;;;;;16.77;12.07;;;;;;;16.43;100.00;100149.84;4899746;29;20513;-92
2021/09/27 04:33:27;;;;;;;15.90;11.10;;;;;;;16.47;100.00;100143.41;4900033;29;20045;-93
2021/09/27 04:36:18;;;;;;;14.20;11.65;;;;;;;16.50;100.00;100151.03;4898605;29;20056;-92
2021/09/27 04:38:48;;;;;;;13.18;11.60;;;;;;;16.53;100.00;100149.97;4891571;29;20100;-88
2021/09/27 04:41:23;;;;;;;18.38;12.60;;;;;;;16.44;100.00;100151.50;4895791;29;20104;-88
2021/09/27 04:44:07;;;;;;;14.68;12.15;;;;;;;16.58;100.00;100144.38;4899116;29;20492;-88
2021/09/27 04:46:37;;;;;;;13.57;11.70;;;;;;;16.56;100.00;100156.78;4893170;29;20114;-90
2021/09/27 04:49:06;;;;;;;13.90;11.95;;;;;;;16.62;100.00;100151.06;4898726;29;20096;-88
2021/09/27 04:52:09;;;;;;;19.35;13.27;;;;;;;16.50;100.00;100156.31;4882502;29;20445;-90
2021/09/27 04:55:03;;;;;;;13.35;11.93;;;;;;;16.53;100.00;100155.25;4898762;29;20052;-89
2021/09/27 04:57:40;;;;;;;17.35;13.07;;;;;;;16.51;100.00;100162.41;4897426;29;20056;-92
2021/09/27 05:00:35;;;;;;;14.00;12.57;;;;;;;16.62;100.00;100154.56;4899994;29;20043;-91
2021/09/27 05:03:19;;;;;;;12.57;11.07;;;;;;;16.65;100.00;100151.66;4895149;29;20045;-93
2021/09/27 05:05:46;;;;;;;14.32;12.82;;;;;;;16.67;100.00;100149.78;4898738;29;20041;-89
2021/09/27 05:08:21;;;;;;;16.48;12.27;;;;;;;16.60;100.00;100152.97;4899658;29;20056;-92
2021/09/27 05:11:34;;;;;;;12.45;11.18;;;;;;;16.69;100.00;100155.75;4900149;29;20041;-90
2021/09/27 05:14:04;;;;;;;15.27;12.93;;;;;;;16.64;100.00;100163.16;4892084;29;20044;-92
2021/09/27 05:17:03;;;;;;;17.02;13.63;;;;;;;16.69;100.00;100158.38;4893510;29;20053;-87
2021/09/27 05:19:54;;;;;;;13.73;12.32;;;;;;;16.76;100.00;100159.59;4893375;29;20080;-87
2021/09/27 05:22:30;;;;;;;13.75;12.27;;;;;;;16.81;100.00;100159.25;4895402;29;20051;-88
2021/09/27 05:25:15;;;;;;;17.95;12.77;;;;;;;16.89;100.00;100158.69;4892500;29;20495;-88
2021/09/27 05:28:21;;;;;;;15.65;12.65;;;;;;;16.91;100.00;100159.38;4892758;29;20412;-89
2021/09/27 05:31:23;;;;;;;20.93;12.47;;;;;;;16.97;100.00;100166.81;4895399;29;20047;-87
2021/09/27 05:34:08;;;;;;;13.27;11.20;;;;;;;17.04;100.00;100173.25;4892269;29;20308;-87
2021/09/27 05:36:50;;;;;;;19.02;12.68;;;;;;;16.95;100.00;100174.00;4894544;29;20059;-89
2021/09/27 05:39:48;;;;;;;17.95;13.65;;;;;;;16.38;100.00;100175.66;4893785;29;20052;-91
2021/09/27 05:42:41;;;;;;;21.65;14.15;;;;;;;16.14;100.00;100177.47;4892966;29;20060;-90
2021/09/27 05:45:43;;;;;;;22.00;15.55;;;;;;;16.40;100.00;100175.53;4894723;29;20109;-89
2021/09/27 05:48:23;;;;;;;19.58;14.48;;;;;;;16.58;100.00;100181.22;4895740;29;20048;-86
2021/09/27 05:51:05;;;;;;;16.33;13.77;;;;;;;16.61;100.00;100181.78;4895846;29;20049;-87
2021/09/27 05:53:46;;;;;;;15.00;11.45;;;;;;;16.77;100.00;100186.75;4889954;29;20453;-89
2021/09/27 05:56:31;;;;;;;11.85;10.35;;;;;;;16.81;100.00;100184.75;4894028;29;20044;-86
2021/09/27 05:59:11;;;;;;;23.52;14.65;;;;;;;16.23;100.00;100196.03;4894190;29;20048;-87
2021/09/27 06:02:12;;;;;;;19.20;15.93;;;;;;;16.02;100.00;100192.38;4906874;29;20053;-87
2021/09/27 06:04:50;;;;;;;20.70;15.82;;;;;;;16.04;100.00;100201.00;4889174;29;20083;-89
2021/09/27 06:07:26;;;;;;;23.45;17.52;;;;;;;16.32;100.00;100188.44;4891840;29;20049;-86
2021/09/27 06:10:01;;;;;;;21.25;18.33;;;;;;;16.61;100.00;100196.75;4895461;29;20399;-91
2021/09/27 06:12:40;;;;;;;20.33;14.65;;;;;;;16.87;100.00;100195.63;4898083;29;20464;-88
2021/09/27 06:15:11;;;;;;;20.42;14.45;;;;;;;16.74;100.00;100200.19;4892480;29;20040;-87
2021/09/27 06:18:06;;;;;;;19.40;14.75;;;;;;;16.72;100.00;100197.66;4892103;29;20439;-90
2021/09/27 06:20:47;;;;;;;20.00;14.45;;;;;;;16.99;100.00;100207.88;4898121;29;20044;-94
2021/09/27 06:23:27;;;;;;;22.98;15.10;;;;;;;17.00;100.00;100204.28;4894061;29;20342;-84
2021/09/27 06:26:02;;;;;;;20.08;16.00;;;;;;;17.07;100.00;100212.53;4896021;29;20048;-87
2021/09/27 06:28:58;;;;;;;19.50;14.82;;;;;;;17.13;100.00;100212.06;4893115;29;20048;-91
2021/09/27 06:31:31;;;;;;;17.50;14.48;;;;;;;16.84;100.00;100209.06;4893859;29;20048;-93
2021/09/27 06:34:08;;;;;;;18.50;14.80;;;;;;;17.08;100.00;100216.00;4893128;29;20544;-91
2021/09/27 06:36:36;;;;;;;18.90;14.85;;;;;;;17.25;100.00;100216.34;4888829;29;20052;-89
2021/09/27 06:39:10;;;;;;;18.80;13.25;;;;;;;17.46;100.00;100200.66;4894079;29;20053;-89
2021/09/27 06:41:39;;;;;;;;;;;;;;;17.66;100.00;100206.16;4896937;29;20091;-88
2021/09/27 06:44:11;;;;;;;16.20;13.85;;;;;;;17.57;100.00;100205.06;4893707;29;19927;-85
2021/09/27 06:46:39;;;;;;;23.00;14.07;;;;;;;17.64;100.00;100206.28;4893138;29;20049;-83
2021/09/27 06:49:07;;;;;;;17.23;14.20;;;;;;;17.73;100.00;100202.91;4892415;29;20132;-85
2021/09/27 06:51:41;;;;;;;21.15;15.65;;;;;;;17.82;100.00;100203.16;4894600;29;20033;-84
2021/09/27 06:54:12;;;;;;;17.55;14.27;;;;;;;18.06;100.00;100203.81;4895312;29;20076;-88
2021/09/27 06:56:40;;;;;;;18.98;14.70;;;;;;;18.11;99.95;100203.41;4892409;29;20052;-85
2021/09/27 06:59:07;;;;;;;16.10;13.57;;;;;;;18.05;98.33;100202.09;4891878;29;20053;-88
2021/09/27 07:01:36;;;;;;;20.65;15.15;;;;;;;18.03;98.74;100196.13;4897487;29;20044;-95
2021/09/27 07:04:04;;;;;;;16.48;13.55;;;;;;;17.92;99.99;100196.16;4894080;29;20044;-86
2021/09/27 07:06:30;;;;;;;17.23;14.48;;;;;;;18.39;96.40;100199.34;4895679;29;20040;-84
2021/09/27 07:08:57;;;;;;;19.02;13.60;;;;;;;18.38;96.09;100200.31;4887607;29;20044;-80
2021/09/27 07:11:25;;;;;;;15.35;12.95;;;;;;;18.36;96.38;100196.94;4878962;29;20492;-88
2021/09/27 07:13:51;;;;;;;17.90;14.38;;;;;;;18.40;94.89;100193.09;4895036;29;20049;-80
2021/09/27 07:16:18;;;;;;;17.40;14.05;;;;;;;18.47;94.65;100196.88;4889335;29;20049;-86
2021/09/27 07:19:03;;;;;;;15.40;12.57;;;;;;;18.52;94.24;100194.69;4889645;29;20139;-83
2021/09/27 07:21:30;;;;;;;15.40;13.80;;;;;;;18.57;94.81;100197.78;4896560;29;20504;-86
2021/09/27 07:23:57;;;;;;;16.65;13.25;;;;;;;18.85;92.31;100198.94;4896880;29;20045;-85
2021/09/27 07:26:24;;;;;;;16.20;14.15;;;;;;;18.81;92.20;100195.75;4896757;29;20509;-84
2021/09/27 07:28:53;;;;;;;15.93;13.20;;;;;;;18.88;91.53;100198.69;4899072;29;20059;-85
2021/09/27 07:31:20;;;;;;;15.68;14.00;;;;;;;18.80;92.22;100193.22;4900980;29;20063;-87
2021/09/27 07:33:47;;;;;;;16.67;13.90;;;;;;;18.86;91.29;100197.19;4893294;29;20052;-84
2021/09/27 07:36:14;;;;;;;17.02;15.35;;;;;;;18.83;91.63;100203.53;4900196;29;20041;-85
2021/09/27 07:38:41;;;;;;;15.18;13.75;;;;;;;18.93;90.25;100204.44;4899007;29;20045;-84
2021/09/27 07:41:09;;;;;;;15.43;13.90;;;;;;;18.91;89.48;100205.50;4900311;29;20452;-87
2021/09/27 07:43:36;;;;;;;13.57;12.25;;;;;;;18.88;89.45;100208.44;4899627;29;20048;-83
2021/09/27 07:46:03;;;;;;;18.00;14.40;;;;;;;18.99;88.34;100208.34;4900355;29;20097;-84
2021/09/27 07:48:30;;;;;;;13.93;12.48;;;;;;;19.05;87.44;100210.47;4900446;29;20411;-87
2021/09/27 07:50:58;;;;;;;16.35;13.40;;;;;;;19.23;86.80;100200.97;4900362;29;20455;-87
2021/09/27 07:53:26;;;;;;;13.90;12.40;;;;;;;19.19;86.99;100209.28;4902381;29;20040;-91
2021/09/27 07:55:53;;;;;;;13.52;12.07;;;;;;;19.33;86.16;100206.25;4900068;29;20059;-85
2021/09/27 07:58:21;;;;;;;15.00;13.45;;;;;;;19.26;87.01;100203.31;4897181;29;20100;-82
2021/09/27 08:00:50;;;;;;;14.63;12.63;;;;;;;19.56;85.59;100212.19;4899101;29;20519;-84
2021/09/27 08:03:20;;;;;;;18.65;11.82;;;;;;;19.45;85.64;100207.00;4900346;29;20041;-83
2021/09/27 08:05:47;;;;;;;17.20;13.38;;;;;;;19.05;87.48;100211.28;4899399;29;20072;-88
2021/09/27 08:08:14;;;;;;;13.57;12.15;;;;;;;19.92;81.60;100207.25;4906349;29;20048;-89
2021/09/27 08:10:41;;;;;;;12.70;11.38;;;;;;;19.57;83.60;100204.13;4900301;29;20044;-86
2021/09/27 08:13:09;;;;;;;15.23;13.55;;;;;;;19.99;82.03;100200.47;4899399;29;20048;-87
2021/09/27 08:15:40;;;;;;;17.52;12.15;;;;;;;19.28;84.88;100211.97;4900626;29;20059;-87
2021/09/27 08:18:10;;;;;;;15.32;13.73;;;;;;;20.29;79.25;100208.25;4899594;29;20052;-85
2021/09/27 08:20:46;;;;;;;15.68;13.30;;;;;;;20.05;80.42;100205.19;4900052;29;20069;-85
2021/09/27 08:23:13;;;;;;;14.18;12.48;;;;;;;19.86;81.30;100203.34;4893863;29;20190;-89
2021/09/27 08:25:41;;;;;;;14.18;12.77;;;;;;;19.78;82.00;100214.63;4899734;29;20535;-85
2021/09/27 08:28:12;;;;;;;15.15;13.20;;;;;;;19.73;83.17;100218.66;4899371;29;20044;-87
2021/09/27 08:30:46;;;;;;;16.77;15.18;;;;;;;19.37;85.50;100208.50;4899319;29;20159;-86
2021/09/27 08:33:13;;;;;;;13.80;12.38;;;;;;;19.48;85.27;100226.06;4895747;29;20072;-89
2021/09/27 08:35:40;;;;;;;15.15;13.55;;;;;;;19.19;87.15;100225.13;4900154;29;20041;-83
2021/09/27 08:38:09;;;;;;;15.07;13.48;;;;;;;19.09;86.87;100225.91;4898286;29;20052;-94
2021/09/27 08:40:58;;;;;;;14.15;12.68;;;;;;;19.39;85.69;100221.59;4898722;29;20049;-89
2021/09/27 08:43:59;;;;;;;14.55;13.20;;;;;;;20.06;81.48;100213.00;4896044;29;20052;-87
2021/09/27 08:46:42;;;;;;;14.38;12.95;;;;;;;19.67;83.89;100221.84;4897667;29;20040;-87
2021/09/27 08:49:34;;;;;;;21.05;13.65;;;;;;;20.14;80.97;100214.97;4893669;29;20097;-86
2021/09/27 08:52:02;;;;;;;14.23;12.73;;;;;;;19.37;85.31;100228.81;4897410;29;20104;-86
2021/09/27 08:54:30;;;;;;;17.40;14.50;;;;;;;19.78;82.88;100225.22;4893774;29;20393;-89
2021/09/27 08:57:05;;;;;;;17.30;15.40;;;;;;;19.27;85.36;100228.78;4898985;29;20579;-91
2021/09/27 08:59:56;;;;;;;15.93;13.30;;;;;;;19.04;87.83;100232.56;4898311;29;20040;-80
2021/09/27 09:02:44;;;;;;;13.90;12.50;;;;;;;19.29;87.01;100236.59;4897712;29;20040;-86
2021/09/27 09:05:26;;;;;;;17.88;13.75;;;;;;;19.66;85.78;100236.88;4898532;29;20045;-84
2021/09/27 09:08:35;;;;;;;15.80;14.18;;;;;;;19.73;83.71;100245.94;4896823;29;20049;-82
2021/09/27 09:11:38;;;;;;;16.88;12.30;;;;;;;19.20;87.81;100242.66;4891705;29;20068;-88
2021/09/27 09:14:30;;;;;;;15.98;13.65;;;;;;;19.70;84.51;100245.38;4896097;29;20052;-84
2021/09/27 09:16:58;;;;;;;18.50;13.02;;;;;;;19.82;82.94;100245.13;4890204;29;20096;-83
2021/09/27 09:19:30;;;;;;;14.05;12.60;;;;;;;19.97;81.44;100237.63;4897339;29;20057;-85
2021/09/27 09:22:05;;;;;;;17.05;12.40;;;;;;;20.71;78.50;100239.75;4897438;29;20473;-83
2021/09/27 09:24:36;;;;;;;18.75;13.52;;;;;;;20.37;79.01;100240.16;4897546;29;20036;-83
2021/09/27 09:27:10;;;;;;;15.50;11.80;;;;;;;20.45;77.64;100225.38;4890562;29;20048;-84
2021/09/27 09:29:40;;;;;;;13.50;12.18;;;;;;;20.42;77.88;100230.00;4898043;29;20045;-87
2021/09/27 09:32:21;;;;;;;14.45;12.85;;;;;;;20.60;76.39;100222.19;4897228;29;20067;-86
2021/09/27 09:34:50;;;;;;;14.50;13.00;;;;;;;20.68;76.57;100226.81;4898959;29;20048;-89
2021/09/27 09:37:23;;;;;;;16.98;12.52;;;;;;;21.50;72.74;100230.59;4897998;29;20488;-86
2021/09/27 09:39:58;;;;;;;14.98;13.48;;;;;;;21.78;71.46;100218.97;4898230;29;20124;-90
2021/09/27 09:42:32;;;;;;;14.23;12.85;;;;;;;21.02;72.60;100229.78;4894224;29;20057;-87
2021/09/27 09:45:31;;;;;;;16.77;12.80;;;;;;;21.63;71.25;100226.63;4897511;29;20052;-90
2021/09/27 09:48:20;;;;;;;13.38;11.98;;;;;;;21.65;71.32;100222.00;4888247;29;20056;-88
2021/09/27 09:50:51;;;;;;;16.08;11.75;;;;;;;21.90;70.45;100224.94;4897592;29;20052;-89
2021/09/27 09:53:23;;;;;;;13.85;12.35;;;;;;;21.16;73.86;100220.53;4896158;29;20091;-86
2021/09/27 09:55:58;;;;;;;14.25;12.75;;;;;;;20.82;74.70;100225.50;4889713;29;20109;-87
2021/09/27 09:58:42;;;;;;;18.95;15.52;;;;;;;20.96;75.05;100213.63;4891960;29;20072;-87
2021/09/27 10:01:23;;;;;;;16.92;14.15;;;;;;;21.42;74.19;100216.25;4894307;29;20044;-86
2021/09/27 10:03:59;;;;;;;16.90;14.40;;;;;;;21.22;73.22;100212.00;4889044;29;20048;-89
2021/09/27 10:06:35;;;;;;;16.75;15.05;;;;;;;22.08;71.21;100204.53;4883413;29;20057;-91
2021/09/27 10:09:07;;;;;;;15.85;14.02;;;;;;;21.53;73.00;100209.09;4893394;29;20045;-94
2021/09/27 10:11:42;;;;;;;17.50;14.25;;;;;;;21.02;74.89;100205.09;4894092;29;20044;-90
2021/09/27 10:14:29;;;;;;;14.88;13.30;;;;;;;21.01;74.79;100203.44;4897526;29;20049;-95
2021/09/27 10:17:12;;;;;;;15.88;12.85;;;;;;;22.27;69.40;100200.94;4895066;29;20415;-89
2021/09/27 10:20:09;;;;;;;18.17;14.38;;;;;;;23.13;64.33;100202.84;4893441;29;20056;-96
2021/09/27 10:22:39;;;;;;;13.75;12.02;;;;;;;21.26;72.10;100200.13;4893410;29;20044;-96
2021/09/27 10:25:28;;;;;;;12.60;11.30;;;;;;;21.16;72.23;100200.16;4897902;29;20040;-96
2021/09/27 10:27:58;;;;;;;15.80;12.15;;;;;;;21.43;71.43;100211.78;4899722;29;20049;-96
2021/09/27 10:30:36;;;;;;;13.02;11.63;;;;;;;21.55;71.08;100209.78;4897931;29;20056;-96
2021/09/27 10:33:14;;;;;;;11.32;10.23;;;;;;;22.04;67.86;100203.16;4893723;29;20041;-96
2021/09/27 10:35:51;;;;;;;12.95;10.85;;;;;;;23.13;63.61;100209.00;4897279;29;20045;-94
2021/09/27 10:38:22;;;;;;;14.02;10.63;;;;;;;21.63;69.89;100204.56;4903514;29;20072;-96
2021/09/27 10:40:51;;;;;;;15.07;12.43;;;;;;;22.60;66.44;100206.50;4894693;29;20056;-96
2021/09/27 10:43:23;;;;;;;12.27;10.95;;;;;;;23.56;61.25;100203.69;4894439;29;20040;-88
2021/09/27 10:45:55;;;;;;;22.70;10.40;;;;;;;22.86;64.65;100206.50;4896572;29;20550;-93
2021/09/27 10:48:23;;;;;;;13.70;9.40;;;;;;;23.48;61.65;100209.81;4895990;29;20131;-89
2021/09/27 10:50:56;;;;;;;12.07;10.32;;;;;;;22.47;65.75;100201.56;4895161;29;20120;-93
2021/09/27 10:53:32;;;;;;;13.38;12.05;;;;;;;22.32;66.34;100198.66;4895277;29;20112;-89
2021/09/27 10:56:14;;;;;;;13.88;11.73;;;;;;;22.61;65.82;100192.22;4890089;29;20493;-92
2021/09/27 10:59:03;;;;;;;11.82;10.73;;;;;;;22.72;65.46;100197.25;4890928;29;20056;-95
2021/09/27 11:01:37;;;;;;;11.20;10.18;;;;;;;23.56;61.79;100201.03;4891459;29;20071;-91
2021/09/27 11:04:23;;;;;;;12.38;11.00;;;;;;;23.55;62.10;100194.06;4896079;29;20074;-95
2021/09/27 11:06:55;;;;;;;15.68;11.30;;;;;;;24.37;59.30;100193.22;4887377;29;20052;-95
2021/09/27 11:09:34;;;;;;;11.13;10.10;;;;;;;23.40;61.53;100199.97;4895400;29;20060;-87
2021/09/27 11:12:17;;;;;;;12.70;10.30;;;;;;;23.93;59.84;100200.66;4893442;29;20048;-89
2021/09/27 11:14:48;;;;;;;14.70;11.60;;;;;;;24.05;59.59;100192.19;4886642;29;20481;-91
2021/09/27 11:17:30;;;;;;;11.70;10.50;;;;;;;22.75;62.76;100194.31;4886451;29;20129;-90
2021/09/27 11:20:13;;;;;;;13.02;11.73;;;;;;;21.91;67.72;100195.56;4891941;29;20053;-88
2021/09/27 11:23:06;;;;;;;12.30;11.07;;;;;;;22.33;67.04;100187.03;4892036;29;20049;-90
2021/09/27 11:25:37;;;;;;;12.23;9.77;;;;;;;22.73;64.75;100191.78;4883175;29;20061;-90
2021/09/27 11:28:07;;;;;;;10.32;9.23;;;;;;;21.83;67.80;100192.00;4888976;29;20037;-94
2021/09/27 11:30:45;;;;;;;13.38;10.13;;;;;;;21.79;67.62;100188.81;4896675;29;20075;-78
2021/09/27 11:33:39;;;;;;;14.02;9.38;;;;;;;22.51;65.76;100186.16;4893776;29;20052;-80
2021/09/27 11:36:52;;;;;;;12.40;11.10;;;;;;;22.85;65.53;100187.06;4866589;29;20100;-76
2021/09/27 11:39:23;;;;;;;13.57;12.18;;;;;;;23.26;63.25;100177.47;4891575;29;20143;-78
2021/09/27 11:42:21;;;;;;;17.80;11.18;;;;;;;22.06;67.52;100179.97;4897832;29;20518;-76
2021/09/27 11:45:34;;;;;;;13.35;11.48;;;;;;;22.04;67.39;100179.25;4894547;29;20053;-78
2021/09/27 11:48:17;;;;;;;12.90;11.35;;;;;;;22.80;64.70;100186.69;4896334;29;20528;-75
2021/09/27 11:51:09;;;;;;;12.10;10.80;;;;;;;22.20;65.70;100174.13;4892845;29;20048;-77
2021/09/27 11:54:02;;;;;;;12.88;11.55;;;;;;;22.54;67.03;100172.56;4885220;29;20049;-77
2021/09/27 11:56:51;;;;;;;14.25;12.70;;;;;;;24.09;59.85;100167.91;4889395;29;20128;-75
2021/09/27 11:59:43;;;;;;;14.18;12.23;;;;;;;24.04;59.56;100166.56;4885680;29;20059;-77